sensor_id;sensor_type;location;lat;lon;timestamp;temperature;humidity
37204;DHT22;23098;48.054;10.636;2023-03-01T00:02:11;-0.10;99.90
37204;DHT22;23098;48.054;10.636;2023-03-01T00:04:37;-0.10;99.90
37204;DHT22;23098;48.054;10.636;2023-03-01T00:07:02;-0.10;99.90
37204;DHT22;23098;48.054;10.636;2023-03-01T00:09:28;-0.10;99.90
37204;DHT22;23098;48.054;10.636;2023-03-01T00:11:53;-0.10;99.90
37204;DHT22;23098;48.054;10.636;2023-03-01T00:14:19;-0.10;99.90
37204;DHT22;23098;48.054;10.636;2023-03-01T00:16:45;-0.10;99.90
37204;DHT22;23098;48.054;10.636;2023-03-01T00:19:16;-0.10;99.90
37204;DHT22;23098;48.054;10.636;2023-03-01T00:21:42;-0.10;99.90
37204;DHT22;23098;48.054;10.636;2023-03-01T00:24:08;-0.10;99.90
37204;DHT22;23098;48.054;10.636;2023-03-01T00:26:34;-0.10;99.90
37204;DHT22;23098;48.054;10.636;2023-03-01T00:29:00;-0.10;99.90
37204;DHT22;23098;48.054;10.636;2023-03-01T00:31:28;-0.10;99.90
37204;DHT22;23098;48.054;10.636;2023-03-01T00:34:00;-0.10;99.90
37204;DHT22;23098;48.054;10.636;2023-03-01T00:36:29;-0.10;99.90
37204;DHT22;23098;48.054;10.636;2023-03-01T00:38:56;-0.10;99.90
37204;DHT22;23098;48.054;10.636;2023-03-01T00:41:22;-0.10;99.90
37204;DHT22;23098;48.054;10.636;2023-03-01T00:43:49;-0.10;99.90
37204;DHT22;23098;48.054;10.636;2023-03-01T00:46:17;-0.10;99.90
37204;DHT22;23098;48.054;10.636;2023-03-01T00:48:43;-0.10;99.90
37204;DHT22;23098;48.054;10.636;2023-03-01T00:51:12;-0.10;99.90
37204;DHT22;23098;48.054;10.636;2023-03-01T00:53:38;-0.10;99.90
37204;DHT22;23098;48.054;10.636;2023-03-01T00:56:06;-0.10;99.90
37204;DHT22;23098;48.054;10.636;2023-03-01T00:58:32;-0.10;99.90
37204;DHT22;23098;48.054;10.636;2023-03-01T01:00:58;-0.10;99.90
37204;DHT22;23098;48.054;10.636;2023-03-01T01:03:25;-0.10;99.90
37204;DHT22;23098;48.054;10.636;2023-03-01T01:05:51;-0.10;99.90
37204;DHT22;23098;48.054;10.636;2023-03-01T01:08:18;-0.10;99.90
37204;DHT22;23098;48.054;10.636;2023-03-01T01:10:45;-0.10;99.90
37204;DHT22;23098;48.054;10.636;2023-03-01T01:13:10;-0.10;99.90
37204;DHT22;23098;48.054;10.636;2023-03-01T01:15:36;-0.10;99.90
37204;DHT22;23098;48.054;10.636;2023-03-01T01:18:02;-0.10;99.90
37204;DHT22;23098;48.054;10.636;2023-03-01T01:20:27;-0.20;99.90
37204;DHT22;23098;48.054;10.636;2023-03-01T01:22:53;-0.20;99.90
37204;DHT22;23098;48.054;10.636;2023-03-01T01:25:19;-0.20;99.90
37204;DHT22;23098;48.054;10.636;2023-03-01T01:27:45;-0.20;99.90
37204;DHT22;23098;48.054;10.636;2023-03-01T01:30:11;-0.20;99.90
37204;DHT22;23098;48.054;10.636;2023-03-01T01:32:36;-0.10;99.90
37204;DHT22;23098;48.054;10.636;2023-03-01T01:35:02;-0.10;99.90
37204;DHT22;23098;48.054;10.636;2023-03-01T01:37:27;-0.20;99.90
37204;DHT22;23098;48.054;10.636;2023-03-01T01:40:00;-0.20;99.90
37204;DHT22;23098;48.054;10.636;2023-03-01T01:42:26;-0.20;99.90
37204;DHT22;23098;48.054;10.636;2023-03-01T01:47:49;-0.20;99.90
37204;DHT22;23098;48.054;10.636;2023-03-01T01:50:17;-0.20;99.90
37204;DHT22;23098;48.054;10.636;2023-03-01T01:52:44;-0.20;99.90
37204;DHT22;23098;48.054;10.636;2023-03-01T01:55:14;-0.20;99.90
37204;DHT22;23098;48.054;10.636;2023-03-01T01:58:08;-0.20;99.90
37204;DHT22;23098;48.054;10.636;2023-03-01T02:00:34;-0.20;99.90
37204;DHT22;23098;48.054;10.636;2023-03-01T02:03:05;-0.20;99.90
37204;DHT22;23098;48.054;10.636;2023-03-01T02:05:33;-0.10;99.90
37204;DHT22;23098;48.054;10.636;2023-03-01T02:08:02;-0.20;99.90
37204;DHT22;23098;48.054;10.636;2023-03-01T02:10:28;-0.20;99.90
37204;DHT22;23098;48.054;10.636;2023-03-01T02:12:54;-0.20;99.90
37204;DHT22;23098;48.054;10.636;2023-03-01T02:15:22;-0.20;99.90
37204;DHT22;23098;48.054;10.636;2023-03-01T02:17:48;-0.20;99.90
37204;DHT22;23098;48.054;10.636;2023-03-01T02:20:33;-0.20;99.90
37204;DHT22;23098;48.054;10.636;2023-03-01T02:23:00;-0.20;99.90
37204;DHT22;23098;48.054;10.636;2023-03-01T02:30:42;-0.20;99.90
37204;DHT22;23098;48.054;10.636;2023-03-01T02:33:29;-0.10;99.90
37204;DHT22;23098;48.054;10.636;2023-03-01T02:35:59;-0.10;99.90
37204;DHT22;23098;48.054;10.636;2023-03-01T02:38:26;-0.10;99.90
37204;DHT22;23098;48.054;10.636;2023-03-01T02:40:54;-0.10;99.90
37204;DHT22;23098;48.054;10.636;2023-03-01T02:43:23;-0.10;99.90
37204;DHT22;23098;48.054;10.636;2023-03-01T02:45:51;-0.20;99.90
37204;DHT22;23098;48.054;10.636;2023-03-01T02:48:18;-0.20;99.90
37204;DHT22;23098;48.054;10.636;2023-03-01T02:51:05;-0.10;99.90
37204;DHT22;23098;48.054;10.636;2023-03-01T02:53:55;-0.10;99.90
37204;DHT22;23098;48.054;10.636;2023-03-01T02:56:23;-0.10;99.90
37204;DHT22;23098;48.054;10.636;2023-03-01T02:58:49;-0.10;99.90
37204;DHT22;23098;48.054;10.636;2023-03-01T03:01:18;-0.20;99.90
37204;DHT22;23098;48.054;10.636;2023-03-01T03:03:43;-0.20;99.90
37204;DHT22;23098;48.054;10.636;2023-03-01T03:06:09;-0.20;99.90
37204;DHT22;23098;48.054;10.636;2023-03-01T03:08:35;-0.20;99.90
37204;DHT22;23098;48.054;10.636;2023-03-01T03:11:00;-0.20;99.90
37204;DHT22;23098;48.054;10.636;2023-03-01T03:13:26;-0.20;99.90
37204;DHT22;23098;48.054;10.636;2023-03-01T03:15:54;-0.20;99.90
37204;DHT22;23098;48.054;10.636;2023-03-01T03:18:20;-0.20;99.90
37204;DHT22;23098;48.054;10.636;2023-03-01T03:20:45;-0.20;99.90
37204;DHT22;23098;48.054;10.636;2023-03-01T03:23:11;-0.20;99.90
37204;DHT22;23098;48.054;10.636;2023-03-01T03:25:37;-0.20;99.90
37204;DHT22;23098;48.054;10.636;2023-03-01T03:28:04;-0.20;99.90
37204;DHT22;23098;48.054;10.636;2023-03-01T03:30:36;-0.20;99.90
37204;DHT22;23098;48.054;10.636;2023-03-01T03:33:02;-0.20;99.90
37204;DHT22;23098;48.054;10.636;2023-03-01T03:35:43;-0.20;99.90
37204;DHT22;23098;48.054;10.636;2023-03-01T03:38:11;-0.20;99.90
37204;DHT22;23098;48.054;10.636;2023-03-01T03:41:07;-0.20;99.90
37204;DHT22;23098;48.054;10.636;2023-03-01T03:43:35;-0.20;99.90
37204;DHT22;23098;48.054;10.636;2023-03-01T03:46:01;-0.20;99.90
37204;DHT22;23098;48.054;10.636;2023-03-01T03:48:38;-0.20;99.90
37204;DHT22;23098;48.054;10.636;2023-03-01T03:51:04;-0.20;99.90
37204;DHT22;23098;48.054;10.636;2023-03-01T03:53:32;-0.20;99.90
37204;DHT22;23098;48.054;10.636;2023-03-01T03:55:58;-0.20;99.90
37204;DHT22;23098;48.054;10.636;2023-03-01T03:58:25;-0.20;99.90
37204;DHT22;23098;48.054;10.636;2023-03-01T04:00:54;-0.20;99.90
37204;DHT22;23098;48.054;10.636;2023-03-01T04:03:24;-0.20;99.90
37204;DHT22;23098;48.054;10.636;2023-03-01T04:05:51;-0.20;99.90
37204;DHT22;23098;48.054;10.636;2023-03-01T04:08:18;-0.20;99.90
37204;DHT22;23098;48.054;10.636;2023-03-01T04:10:47;-0.20;99.90
37204;DHT22;23098;48.054;10.636;2023-03-01T04:13:18;-0.20;99.90
37204;DHT22;23098;48.054;10.636;2023-03-01T04:15:48;-0.20;99.90
37204;DHT22;23098;48.054;10.636;2023-03-01T04:18:15;-0.20;99.90
37204;DHT22;23098;48.054;10.636;2023-03-01T04:20:42;-0.20;99.90
37204;DHT22;23098;48.054;10.636;2023-03-01T04:23:11;-0.20;99.90
37204;DHT22;23098;48.054;10.636;2023-03-01T04:25:40;-0.20;99.90
37204;DHT22;23098;48.054;10.636;2023-03-01T04:28:06;-0.20;99.90
37204;DHT22;23098;48.054;10.636;2023-03-01T04:30:32;-0.20;99.90
37204;DHT22;23098;48.054;10.636;2023-03-01T04:33:02;-0.20;99.90
37204;DHT22;23098;48.054;10.636;2023-03-01T04:35:28;-0.30;99.90
37204;DHT22;23098;48.054;10.636;2023-03-01T04:37:53;-0.30;99.90
37204;DHT22;23098;48.054;10.636;2023-03-01T04:40:19;-0.30;99.90
37204;DHT22;23098;48.054;10.636;2023-03-01T04:42:44;-0.30;99.90
37204;DHT22;23098;48.054;10.636;2023-03-01T04:45:10;-0.30;99.90
37204;DHT22;23098;48.054;10.636;2023-03-01T04:47:43;-0.30;99.90
37204;DHT22;23098;48.054;10.636;2023-03-01T04:50:14;-0.30;99.90
37204;DHT22;23098;48.054;10.636;2023-03-01T04:52:41;-0.30;99.90
37204;DHT22;23098;48.054;10.636;2023-03-01T04:55:06;-0.30;99.90
37204;DHT22;23098;48.054;10.636;2023-03-01T04:57:32;-0.30;99.90
37204;DHT22;23098;48.054;10.636;2023-03-01T04:59:58;-0.30;99.90
37204;DHT22;23098;48.054;10.636;2023-03-01T05:02:23;-0.30;99.90
37204;DHT22;23098;48.054;10.636;2023-03-01T05:04:49;-0.30;99.90
37204;DHT22;23098;48.054;10.636;2023-03-01T05:07:15;-0.30;99.90
37204;DHT22;23098;48.054;10.636;2023-03-01T05:09:45;-0.30;99.90
37204;DHT22;23098;48.054;10.636;2023-03-01T05:12:12;-0.30;99.90
37204;DHT22;23098;48.054;10.636;2023-03-01T05:14:37;-0.30;99.90
37204;DHT22;23098;48.054;10.636;2023-03-01T05:17:04;-0.30;99.90
37204;DHT22;23098;48.054;10.636;2023-03-01T05:19:30;-0.30;99.90
37204;DHT22;23098;48.054;10.636;2023-03-01T05:21:57;-0.40;99.90
37204;DHT22;23098;48.054;10.636;2023-03-01T05:24:33;-0.40;99.90
37204;DHT22;23098;48.054;10.636;2023-03-01T05:27:00;-0.40;99.90
37204;DHT22;23098;48.054;10.636;2023-03-01T05:29:27;-0.40;99.90
37204;DHT22;23098;48.054;10.636;2023-03-01T05:31:55;-0.40;99.90
37204;DHT22;23098;48.054;10.636;2023-03-01T05:34:32;-0.40;99.90
37204;DHT22;23098;48.054;10.636;2023-03-01T05:36:59;-0.40;99.90
37204;DHT22;23098;48.054;10.636;2023-03-01T05:39:26;-0.40;99.90
37204;DHT22;23098;48.054;10.636;2023-03-01T05:41:53;-0.40;99.90
37204;DHT22;23098;48.054;10.636;2023-03-01T05:44:19;-0.40;99.90
37204;DHT22;23098;48.054;10.636;2023-03-01T05:46:44;-0.40;99.90
37204;DHT22;23098;48.054;10.636;2023-03-01T05:49:11;-0.40;99.90
37204;DHT22;23098;48.054;10.636;2023-03-01T05:51:39;-0.40;99.90
37204;DHT22;23098;48.054;10.636;2023-03-01T05:54:05;-0.40;99.90
37204;DHT22;23098;48.054;10.636;2023-03-01T05:56:32;-0.40;99.90
37204;DHT22;23098;48.054;10.636;2023-03-01T05:58:58;-0.40;99.90
37204;DHT22;23098;48.054;10.636;2023-03-01T06:01:23;-0.40;99.90
37204;DHT22;23098;48.054;10.636;2023-03-01T06:03:49;-0.40;99.90
37204;DHT22;23098;48.054;10.636;2023-03-01T06:06:14;-0.50;99.90
37204;DHT22;23098;48.054;10.636;2023-03-01T06:08:40;-0.50;99.90
37204;DHT22;23098;48.054;10.636;2023-03-01T06:11:05;-0.50;99.90
37204;DHT22;23098;48.054;10.636;2023-03-01T06:13:32;-0.50;99.90
37204;DHT22;23098;48.054;10.636;2023-03-01T06:15:57;-0.40;99.90
37204;DHT22;23098;48.054;10.636;2023-03-01T06:18:23;-0.50;99.90
37204;DHT22;23098;48.054;10.636;2023-03-01T06:20:55;-0.50;99.90
37204;DHT22;23098;48.054;10.636;2023-03-01T06:23:21;-0.50;99.90
37204;DHT22;23098;48.054;10.636;2023-03-01T06:25:47;-0.50;99.90
37204;DHT22;23098;48.054;10.636;2023-03-01T06:28:12;-0.50;99.90
37204;DHT22;23098;48.054;10.636;2023-03-01T06:30:38;-0.50;99.90
37204;DHT22;23098;48.054;10.636;2023-03-01T06:33:03;-0.50;99.90
37204;DHT22;23098;48.054;10.636;2023-03-01T06:35:29;-0.50;99.90
37204;DHT22;23098;48.054;10.636;2023-03-01T06:37:57;-0.60;99.90
37204;DHT22;23098;48.054;10.636;2023-03-01T06:40:23;-0.60;99.90
37204;DHT22;23098;48.054;10.636;2023-03-01T06:42:49;-0.60;99.90
37204;DHT22;23098;48.054;10.636;2023-03-01T06:45:17;-0.60;99.90
37204;DHT22;23098;48.054;10.636;2023-03-01T06:47:43;-0.60;99.90
37204;DHT22;23098;48.054;10.636;2023-03-01T06:50:09;-0.60;99.90
37204;DHT22;23098;48.054;10.636;2023-03-01T06:52:34;-0.70;99.90
37204;DHT22;23098;48.054;10.636;2023-03-01T06:55:00;-0.70;99.90
37204;DHT22;23098;48.054;10.636;2023-03-01T06:57:27;-0.70;99.90
37204;DHT22;23098;48.054;10.636;2023-03-01T06:59:52;-0.80;99.90
37204;DHT22;23098;48.054;10.636;2023-03-01T07:02:18;-0.80;99.90
37204;DHT22;23098;48.054;10.636;2023-03-01T07:04:43;-0.70;99.90
37204;DHT22;23098;48.054;10.636;2023-03-01T07:07:09;-0.70;99.90
37204;DHT22;23098;48.054;10.636;2023-03-01T07:09:35;-0.80;99.90
37204;DHT22;23098;48.054;10.636;2023-03-01T07:12:01;-1.00;99.90
37204;DHT22;23098;48.054;10.636;2023-03-01T07:14:26;-1.00;99.90
37204;DHT22;23098;48.054;10.636;2023-03-01T07:16:55;-0.90;99.90
37204;DHT22;23098;48.054;10.636;2023-03-01T07:19:21;-0.90;99.90
37204;DHT22;23098;48.054;10.636;2023-03-01T07:21:48;-0.80;99.90
37204;DHT22;23098;48.054;10.636;2023-03-01T07:24:14;-0.80;99.90
37204;DHT22;23098;48.054;10.636;2023-03-01T07:26:39;-0.80;99.90
37204;DHT22;23098;48.054;10.636;2023-03-01T07:29:06;-0.80;99.90
37204;DHT22;23098;48.054;10.636;2023-03-01T07:31:32;-0.90;99.90
37204;DHT22;23098;48.054;10.636;2023-03-01T07:33:58;-0.90;99.90
37204;DHT22;23098;48.054;10.636;2023-03-01T07:36:24;-0.90;99.90
37204;DHT22;23098;48.054;10.636;2023-03-01T07:38:50;-0.90;99.90
37204;DHT22;23098;48.054;10.636;2023-03-01T07:41:15;-0.90;99.90
37204;DHT22;23098;48.054;10.636;2023-03-01T07:43:41;-1.00;99.90
37204;DHT22;23098;48.054;10.636;2023-03-01T07:46:07;-0.90;99.90
37204;DHT22;23098;48.054;10.636;2023-03-01T07:48:33;-0.80;99.90
37204;DHT22;23098;48.054;10.636;2023-03-01T07:50:59;-0.80;99.90
37204;DHT22;23098;48.054;10.636;2023-03-01T07:53:25;-0.90;99.90
37204;DHT22;23098;48.054;10.636;2023-03-01T07:56:06;-0.90;99.90
37204;DHT22;23098;48.054;10.636;2023-03-01T07:58:37;-0.80;99.90
37204;DHT22;23098;48.054;10.636;2023-03-01T08:01:07;-0.90;99.90
37204;DHT22;23098;48.054;10.636;2023-03-01T08:03:34;-0.70;99.90
37204;DHT22;23098;48.054;10.636;2023-03-01T08:06:02;-0.80;99.90
37204;DHT22;23098;48.054;10.636;2023-03-01T08:08:28;-0.80;99.90
37204;DHT22;23098;48.054;10.636;2023-03-01T08:10:56;-0.70;99.90
37204;DHT22;23098;48.054;10.636;2023-03-01T08:13:22;-0.70;99.90
37204;DHT22;23098;48.054;10.636;2023-03-01T08:15:51;-0.80;99.90
37204;DHT22;23098;48.054;10.636;2023-03-01T08:18:18;-0.80;99.90
37204;DHT22;23098;48.054;10.636;2023-03-01T08:20:43;-0.80;99.90
37204;DHT22;23098;48.054;10.636;2023-03-01T08:23:09;-0.70;99.90
37204;DHT22;23098;48.054;10.636;2023-03-01T08:25:35;-0.60;99.90
37204;DHT22;23098;48.054;10.636;2023-03-01T08:28:01;-0.60;99.90
37204;DHT22;23098;48.054;10.636;2023-03-01T08:30:27;-0.60;99.90
37204;DHT22;23098;48.054;10.636;2023-03-01T08:32:53;-0.60;99.90
37204;DHT22;23098;48.054;10.636;2023-03-01T08:35:20;-0.60;99.90
37204;DHT22;23098;48.054;10.636;2023-03-01T08:37:46;-0.50;99.90
37204;DHT22;23098;48.054;10.636;2023-03-01T08:40:12;-0.60;99.90
37204;DHT22;23098;48.054;10.636;2023-03-01T08:42:42;-0.50;99.90
37204;DHT22;23098;48.054;10.636;2023-03-01T08:45:11;-0.70;99.90
37204;DHT22;23098;48.054;10.636;2023-03-01T08:47:37;-0.60;99.90
37204;DHT22;23098;48.054;10.636;2023-03-01T08:50:04;-0.50;99.90
37204;DHT22;23098;48.054;10.636;2023-03-01T08:52:30;-0.40;99.90
37204;DHT22;23098;48.054;10.636;2023-03-01T08:54:57;-0.30;99.90
37204;DHT22;23098;48.054;10.636;2023-03-01T08:57:22;-0.40;99.90
37204;DHT22;23098;48.054;10.636;2023-03-01T08:59:48;-0.40;99.90
37204;DHT22;23098;48.054;10.636;2023-03-01T09:02:16;-0.30;99.90
37204;DHT22;23098;48.054;10.636;2023-03-01T09:04:43;-0.40;99.90
37204;DHT22;23098;48.054;10.636;2023-03-01T09:07:10;-0.30;99.90
37204;DHT22;23098;48.054;10.636;2023-03-01T09:09:36;-0.20;99.90
37204;DHT22;23098;48.054;10.636;2023-03-01T09:12:02;-0.30;99.90
37204;DHT22;23098;48.054;10.636;2023-03-01T09:14:28;-0.20;99.90
37204;DHT22;23098;48.054;10.636;2023-03-01T09:16:53;-0.30;99.90
37204;DHT22;23098;48.054;10.636;2023-03-01T09:19:19;-0.10;99.90
37204;DHT22;23098;48.054;10.636;2023-03-01T09:21:45;-0.20;99.90
37204;DHT22;23098;48.054;10.636;2023-03-01T09:24:19;-0.10;99.90
37204;DHT22;23098;48.054;10.636;2023-03-01T09:26:45;0.10;99.90
37204;DHT22;23098;48.054;10.636;2023-03-01T09:29:12;0.00;99.90
37204;DHT22;23098;48.054;10.636;2023-03-01T09:31:37;0.10;99.90
37204;DHT22;23098;48.054;10.636;2023-03-01T09:34:04;0.00;99.90
37204;DHT22;23098;48.054;10.636;2023-03-01T09:36:30;0.00;99.90
37204;DHT22;23098;48.054;10.636;2023-03-01T09:38:56;0.00;99.90
37204;DHT22;23098;48.054;10.636;2023-03-01T09:43:57;0.20;99.90
37204;DHT22;23098;48.054;10.636;2023-03-01T09:46:25;0.00;99.90
37204;DHT22;23098;48.054;10.636;2023-03-01T09:48:56;0.10;99.90
37204;DHT22;23098;48.054;10.636;2023-03-01T09:51:29;0.20;99.90
37204;DHT22;23098;48.054;10.636;2023-03-01T09:53:57;0.20;99.90
37204;DHT22;23098;48.054;10.636;2023-03-01T09:56:34;0.20;99.90
37204;DHT22;23098;48.054;10.636;2023-03-01T09:59:26;0.30;99.90
37204;DHT22;23098;48.054;10.636;2023-03-01T10:02:16;0.10;99.90
37204;DHT22;23098;48.054;10.636;2023-03-01T10:04:55;0.10;99.90
37204;DHT22;23098;48.054;10.636;2023-03-01T10:10:01;0.20;99.90
37204;DHT22;23098;48.054;10.636;2023-03-01T10:12:35;0.20;99.90
37204;DHT22;23098;48.054;10.636;2023-03-01T10:15:16;0.20;99.90
37204;DHT22;23098;48.054;10.636;2023-03-01T10:17:57;0.10;99.90
37204;DHT22;23098;48.054;10.636;2023-03-01T10:20:26;0.10;99.90
37204;DHT22;23098;48.054;10.636;2023-03-01T10:22:52;0.30;99.90
37204;DHT22;23098;48.054;10.636;2023-03-01T10:28:16;0.30;99.90
37204;DHT22;23098;48.054;10.636;2023-03-01T10:30:42;0.20;99.90
37204;DHT22;23098;48.054;10.636;2023-03-01T10:33:24;0.20;99.90
37204;DHT22;23098;48.054;10.636;2023-03-01T10:35:51;0.30;99.90
37204;DHT22;23098;48.054;10.636;2023-03-01T10:38:18;0.50;99.90
37204;DHT22;23098;48.054;10.636;2023-03-01T10:43:23;0.40;99.90
37204;DHT22;23098;48.054;10.636;2023-03-01T10:45:48;0.60;99.90
37204;DHT22;23098;48.054;10.636;2023-03-01T10:48:23;0.60;99.90
37204;DHT22;23098;48.054;10.636;2023-03-01T10:51:05;0.50;99.90
37204;DHT22;23098;48.054;10.636;2023-03-01T10:53:42;0.60;99.90
37204;DHT22;23098;48.054;10.636;2023-03-01T10:56:13;0.70;99.90
37204;DHT22;23098;48.054;10.636;2023-03-01T10:58:58;0.60;99.90
37204;DHT22;23098;48.054;10.636;2023-03-01T11:01:30;0.50;99.90
37204;DHT22;23098;48.054;10.636;2023-03-01T11:04:17;0.40;99.90
37204;DHT22;23098;48.054;10.636;2023-03-01T11:06:43;0.50;99.90
37204;DHT22;23098;48.054;10.636;2023-03-01T11:09:23;0.70;99.90
37204;DHT22;23098;48.054;10.636;2023-03-01T11:11:54;0.60;99.90
37204;DHT22;23098;48.054;10.636;2023-03-01T11:14:30;0.50;99.90
37204;DHT22;23098;48.054;10.636;2023-03-01T11:19:41;0.60;99.90
37204;DHT22;23098;48.054;10.636;2023-03-01T11:22:20;0.70;99.90
37204;DHT22;23098;48.054;10.636;2023-03-01T11:24:53;0.60;99.90
37204;DHT22;23098;48.054;10.636;2023-03-01T11:27:23;0.90;99.90
37204;DHT22;23098;48.054;10.636;2023-03-01T11:30:00;0.80;99.90
37204;DHT22;23098;48.054;10.636;2023-03-01T11:32:34;0.90;99.90
37204;DHT22;23098;48.054;10.636;2023-03-01T11:35:14;0.70;99.90
37204;DHT22;23098;48.054;10.636;2023-03-01T11:37:54;0.80;99.90
37204;DHT22;23098;48.054;10.636;2023-03-01T11:40:40;0.90;99.90
37204;DHT22;23098;48.054;10.636;2023-03-01T11:43:22;1.00;99.90
37204;DHT22;23098;48.054;10.636;2023-03-01T11:48:53;1.30;99.90
37204;DHT22;23098;48.054;10.636;2023-03-01T12:00:05;1.50;99.90
37204;DHT22;23098;48.054;10.636;2023-03-01T12:02:56;1.60;99.90
37204;DHT22;23098;48.054;10.636;2023-03-01T12:08:49;1.30;99.90
37204;DHT22;23098;48.054;10.636;2023-03-01T12:14:09;1.10;99.90
37204;DHT22;23098;48.054;10.636;2023-03-01T12:17:03;1.20;99.90
37204;DHT22;23098;48.054;10.636;2023-03-01T12:19:39;1.40;99.90
37204;DHT22;23098;48.054;10.636;2023-03-01T12:25:02;1.70;99.90
37204;DHT22;23098;48.054;10.636;2023-03-01T12:27:56;1.40;99.90
37204;DHT22;23098;48.054;10.636;2023-03-01T12:36:05;1.70;99.90
37204;DHT22;23098;48.054;10.636;2023-03-01T12:38:42;1.80;99.90
37204;DHT22;23098;48.054;10.636;2023-03-01T12:51:35;1.50;99.90
37204;DHT22;23098;48.054;10.636;2023-03-01T12:54:16;1.70;99.90
37204;DHT22;23098;48.054;10.636;2023-03-01T12:56:42;2.10;99.90
37204;DHT22;23098;48.054;10.636;2023-03-01T12:59:24;2.20;99.90
37204;DHT22;23098;48.054;10.636;2023-03-01T13:07:15;1.90;99.90
37204;DHT22;23098;48.054;10.636;2023-03-01T13:17:52;3.00;99.90
37204;DHT22;23098;48.054;10.636;2023-03-01T13:20:20;2.40;99.90
37204;DHT22;23098;48.054;10.636;2023-03-01T13:22:47;2.60;99.90
37204;DHT22;23098;48.054;10.636;2023-03-01T13:25:18;2.30;99.90
37204;DHT22;23098;48.054;10.636;2023-03-01T13:27:45;2.50;99.90
37204;DHT22;23098;48.054;10.636;2023-03-01T13:35:49;3.40;99.90
37204;DHT22;23098;48.054;10.636;2023-03-01T13:38:47;3.70;99.90
37204;DHT22;23098;48.054;10.636;2023-03-01T13:41:15;3.50;99.90
37204;DHT22;23098;48.054;10.636;2023-03-01T13:43:43;3.20;99.90
37204;DHT22;23098;48.054;10.636;2023-03-01T13:46:18;3.40;99.90
37204;DHT22;23098;48.054;10.636;2023-03-01T13:48:49;3.70;99.90
37204;DHT22;23098;48.054;10.636;2023-03-01T13:51:16;3.50;99.90
37204;DHT22;23098;48.054;10.636;2023-03-01T13:53:47;3.80;99.90
37204;DHT22;23098;48.054;10.636;2023-03-01T13:56:19;3.70;99.90
37204;DHT22;23098;48.054;10.636;2023-03-01T13:58:49;3.50;99.90
37204;DHT22;23098;48.054;10.636;2023-03-01T14:01:28;3.60;99.90
37204;DHT22;23098;48.054;10.636;2023-03-01T14:03:54;3.60;99.90
37204;DHT22;23098;48.054;10.636;2023-03-01T14:06:24;4.00;99.90
37204;DHT22;23098;48.054;10.636;2023-03-01T14:09:00;4.30;99.90
37204;DHT22;23098;48.054;10.636;2023-03-01T14:14:13;4.10;99.90
37204;DHT22;23098;48.054;10.636;2023-03-01T14:17:16;3.70;99.90
37204;DHT22;23098;48.054;10.636;2023-03-01T14:19:47;3.80;99.90
37204;DHT22;23098;48.054;10.636;2023-03-01T14:22:33;3.70;99.90
37204;DHT22;23098;48.054;10.636;2023-03-01T14:25:06;4.00;99.90
37204;DHT22;23098;48.054;10.636;2023-03-01T14:27:42;4.30;99.90
37204;DHT22;23098;48.054;10.636;2023-03-01T14:30:35;4.30;99.90
37204;DHT22;23098;48.054;10.636;2023-03-01T14:33:04;4.60;99.90
37204;DHT22;23098;48.054;10.636;2023-03-01T14:35:33;4.30;99.90
37204;DHT22;23098;48.054;10.636;2023-03-01T14:38:00;4.40;99.90
37204;DHT22;23098;48.054;10.636;2023-03-01T14:40:28;4.20;99.90
37204;DHT22;23098;48.054;10.636;2023-03-01T14:42:57;4.30;99.90
37204;DHT22;23098;48.054;10.636;2023-03-01T14:45:26;4.30;99.90
37204;DHT22;23098;48.054;10.636;2023-03-01T14:47:52;4.60;99.90
37204;DHT22;23098;48.054;10.636;2023-03-01T14:50:35;4.90;99.90
37204;DHT22;23098;48.054;10.636;2023-03-01T14:53:06;4.70;99.90
37204;DHT22;23098;48.054;10.636;2023-03-01T14:55:40;4.60;99.90
37204;DHT22;23098;48.054;10.636;2023-03-01T14:58:13;4.40;99.90
37204;DHT22;23098;48.054;10.636;2023-03-01T15:00:39;4.40;99.90
37204;DHT22;23098;48.054;10.636;2023-03-01T15:03:12;4.30;99.90
37204;DHT22;23098;48.054;10.636;2023-03-01T15:05:39;4.50;99.90
37204;DHT22;23098;48.054;10.636;2023-03-01T15:08:06;4.40;99.90
37204;DHT22;23098;48.054;10.636;2023-03-01T15:10:35;4.40;99.90
37204;DHT22;23098;48.054;10.636;2023-03-01T15:13:21;4.20;99.90
37204;DHT22;23098;48.054;10.636;2023-03-01T15:15:48;4.10;99.90
37204;DHT22;23098;48.054;10.636;2023-03-01T15:18:25;4.00;99.90
37204;DHT22;23098;48.054;10.636;2023-03-01T15:20:52;4.10;99.90
37204;DHT22;23098;48.054;10.636;2023-03-01T15:23:21;4.10;99.90
37204;DHT22;23098;48.054;10.636;2023-03-01T15:25:48;4.10;99.90
37204;DHT22;23098;48.054;10.636;2023-03-01T15:28:23;4.10;99.90
37204;DHT22;23098;48.054;10.636;2023-03-01T15:30:56;4.10;99.90
37204;DHT22;23098;48.054;10.636;2023-03-01T15:35:54;4.20;99.90
37204;DHT22;23098;48.054;10.636;2023-03-01T15:38:33;4.10;99.90
37204;DHT22;23098;48.054;10.636;2023-03-01T15:41:05;4.20;99.90
37204;DHT22;23098;48.054;10.636;2023-03-01T15:43:42;4.30;99.90
37204;DHT22;23098;48.054;10.636;2023-03-01T15:46:20;4.10;99.90
37204;DHT22;23098;48.054;10.636;2023-03-01T15:48:49;4.20;99.90
37204;DHT22;23098;48.054;10.636;2023-03-01T15:51:19;4.00;99.90
37204;DHT22;23098;48.054;10.636;2023-03-01T15:53:50;3.70;99.90
37204;DHT22;23098;48.054;10.636;2023-03-01T15:56:16;3.60;99.90
37204;DHT22;23098;48.054;10.636;2023-03-01T15:58:42;3.40;99.90
37204;DHT22;23098;48.054;10.636;2023-03-01T16:01:15;3.20;99.90
37204;DHT22;23098;48.054;10.636;2023-03-01T16:03:44;3.20;99.90
37204;DHT22;23098;48.054;10.636;2023-03-01T16:06:11;3.20;99.90
37204;DHT22;23098;48.054;10.636;2023-03-01T16:08:37;3.10;99.90
37204;DHT22;23098;48.054;10.636;2023-03-01T16:11:04;3.00;99.90
37204;DHT22;23098;48.054;10.636;2023-03-01T16:13:31;2.90;99.90
37204;DHT22;23098;48.054;10.636;2023-03-01T16:15:57;3.00;99.90
37204;DHT22;23098;48.054;10.636;2023-03-01T16:18:23;2.90;99.90
37204;DHT22;23098;48.054;10.636;2023-03-01T16:20:49;2.70;99.90
37204;DHT22;23098;48.054;10.636;2023-03-01T16:23:15;2.70;99.90
37204;DHT22;23098;48.054;10.636;2023-03-01T16:25:40;2.70;99.90
37204;DHT22;23098;48.054;10.636;2023-03-01T16:28:06;2.70;99.90
37204;DHT22;23098;48.054;10.636;2023-03-01T16:30:38;2.60;99.90
37204;DHT22;23098;48.054;10.636;2023-03-01T16:33:04;2.70;99.90
37204;DHT22;23098;48.054;10.636;2023-03-01T16:35:39;2.60;99.90
37204;DHT22;23098;48.054;10.636;2023-03-01T16:38:05;2.50;99.90
37204;DHT22;23098;48.054;10.636;2023-03-01T16:40:30;2.50;99.90
37204;DHT22;23098;48.054;10.636;2023-03-01T16:42:57;2.40;99.90
37204;DHT22;23098;48.054;10.636;2023-03-01T16:45:32;2.30;99.90
37204;DHT22;23098;48.054;10.636;2023-03-01T16:48:12;2.30;99.90
37204;DHT22;23098;48.054;10.636;2023-03-01T16:50:37;2.20;99.90
37204;DHT22;23098;48.054;10.636;2023-03-01T16:53:03;2.10;99.90
37204;DHT22;23098;48.054;10.636;2023-03-01T16:55:29;2.10;99.90
37204;DHT22;23098;48.054;10.636;2023-03-01T16:57:54;2.00;99.90
37204;DHT22;23098;48.054;10.636;2023-03-01T17:00:20;2.00;99.90